Time;durP1;ratioP1;P1;durP2;ratioP2;P2;SDS_P1;SDS_P2;PMS_P1;PMS_P2;Temp;Humidity;BMP_temperature;BMP_pressure;BME280_temperature;BME280_humidity;BME280_pressure;Samples;Min_cycle;Max_cycle;Signal;HPM_P1;HPM_P2
2021/04/30 00:00:54;;;;;;;16.58;12.27;;;10.40;73.70;;;;;;3589895;39;20047;-63
2021/04/30 00:03:20;;;;;;;14.95;11.18;;;10.50;73.10;;;;;;3591562;39;20124;-64
2021/04/30 00:05:46;;;;;;;16.25;11.30;;;10.50;73.00;;;;;;3593345;39;20341;-64
2021/04/30 00:08:12;;;;;;;14.60;10.95;;;10.50;73.50;;;;;;3586223;39;20032;-63
2021/04/30 00:10:39;;;;;;;15.77;10.80;;;10.50;72.90;;;;;;3587921;39;20343;-64
2021/04/30 00:13:06;;;;;;;16.33;11.43;;;10.50;73.40;;;;;;3598741;39;20028;-63
2021/04/30 00:15:32;;;;;;;16.02;12.00;;;10.50;72.60;;;;;;3596585;39;20016;-64
2021/04/30 00:18:03;;;;;;;16.55;12.30;;;10.60;73.60;;;;;;3594389;39;20038;-63
2021/04/30 00:20:29;;;;;;;16.80;12.65;;;10.60;72.10;;;;;;3581814;39;20084;-63
2021/04/30 00:22:55;;;;;;;14.50;11.75;;;10.50;72.00;;;;;;3580852;39;20047;-65
2021/04/30 00:25:21;;;;;;;16.95;12.82;;;10.50;72.60;;;;;;3587007;39;20440;-63
2021/04/30 00:27:46;;;;;;;16.60;12.50;;;10.50;72.40;;;;;;3593772;39;20047;-63
2021/04/30 00:30:14;;;;;;;19.70;13.15;;;10.50;72.70;;;;;;3591853;39;20150;-64
2021/04/30 00:32:40;;;;;;;17.67;12.70;;;10.50;73.60;;;;;;3598332;39;20116;-63
2021/04/30 00:35:06;;;;;;;16.23;12.20;;;10.40;73.40;;;;;;3597328;39;20083;-63
2021/04/30 00:37:32;;;;;;;15.00;11.90;;;10.40;73.60;;;;;;3594993;39;20064;-64
2021/04/30 00:39:57;;;;;;;15.52;12.25;;;10.30;74.20;;;;;;3592475;39;20028;-63
2021/04/30 00:42:23;;;;;;;16.92;12.90;;;10.30;74.20;;;;;;3590251;39;20778;-64
2021/04/30 00:44:49;;;;;;;16.05;12.95;;;10.20;74.20;;;;;;3589189;39;20148;-63
2021/04/30 00:47:26;;;;;;;18.05;13.13;;;10.20;74.10;;;;;;3581963;39;20031;-63
2021/04/30 00:49:52;;;;;;;15.20;11.52;;;10.10;73.10;;;;;;3593866;39;20027;-63
2021/04/30 00:52:18;;;;;;;17.70;12.50;;;10.10;74.50;;;;;;3596439;39;20124;-63
2021/04/30 00:54:44;;;;;;;13.95;11.45;;;10.00;74.30;;;;;;3598249;39;20040;-64
2021/04/30 00:57:11;;;;;;;14.68;11.10;;;9.90;73.60;;;;;;3596475;39;20036;-62
2021/04/30 00:59:38;;;;;;;14.73;10.35;;;9.90;74.60;;;;;;3593628;39;20032;-64
2021/04/30 01:02:04;;;;;;;14.45;10.85;;;9.90;74.30;;;;;;3592166;39;20035;-63
2021/04/30 01:04:30;;;;;;;16.90;11.98;;;9.90;74.60;;;;;;3590116;39;20337;-64
2021/04/30 01:06:56;;;;;;;12.55;10.35;;;10.00;74.90;;;;;;3590611;39;20036;-63
2021/04/30 01:09:21;;;;;;;15.25;11.40;;;10.20;75.10;;;;;;3594259;39;20586;-63
2021/04/30 01:11:48;;;;;;;15.35;11.60;;;10.20;74.30;;;;;;3592485;39;20096;-64
2021/04/30 01:14:14;;;;;;;15.70;11.40;;;10.30;73.40;;;;;;3588687;39;20125;-64
2021/04/30 01:16:40;;;;;;;15.57;12.30;;;10.30;73.40;;;;;;3598150;39;20040;-63
2021/04/30 01:19:06;;;;;;;13.77;10.38;;;10.40;73.70;;;;;;3595994;39;20066;-64
2021/04/30 01:21:31;;;;;;;14.00;10.90;;;10.40;73.20;;;;;;3584886;39;20024;-61
2021/04/30 01:23:57;;;;;;;14.35;11.30;;;10.40;73.60;;;;;;3596215;39;20036;-60
2021/04/30 01:26:23;;;;;;;15.07;11.20;;;10.30;73.40;;;;;;3597832;39;20207;-60
2021/04/30 01:28:49;;;;;;;14.38;11.13;;;10.40;73.10;;;;;;3595881;39;20023;-60
2021/04/30 01:31:15;;;;;;;14.82;11.02;;;10.40;73.30;;;;;;3594088;39;20056;-59
2021/04/30 01:33:40;;;;;;;16.15;11.63;;;10.50;74.00;;;;;;3587269;39;20032;-60
2021/04/30 01:36:07;;;;;;;16.50;12.65;;;10.50;72.80;;;;;;3589207;39;20409;-60
2021/04/30 01:38:33;;;;;;;15.85;11.45;;;10.50;72.30;;;;;;3589493;39;20110;-61
2021/04/30 01:40:59;;;;;;;13.77;11.27;;;10.40;73.40;;;;;;3591265;39;20083;-60
2021/04/30 01:43:25;;;;;;;14.52;11.32;;;10.50;72.80;;;;;;3593645;39;20028;-60
2021/04/30 01:45:59;;;;;;;15.40;10.35;;;10.40;72.90;;;;;;3595603;39;20051;-60
2021/04/30 01:48:28;;;;;;;15.65;10.27;;;10.40;72.90;;;;;;3587619;39;20066;-60
2021/04/30 01:50:55;;;;;;;12.70;9.65;;;10.50;72.80;;;;;;3582319;39;20861;-60
2021/04/30 01:53:23;;;;;;;12.02;9.57;;;10.50;72.60;;;;;;3583261;39;20188;-60
2021/04/30 01:55:49;;;;;;;10.88;8.77;;;10.50;72.70;;;;;;3591038;39;20113;-60
2021/04/30 01:58:16;;;;;;;11.38;8.57;;;10.40;73.30;;;;;;3587929;39;20406;-60
2021/04/30 02:00:43;;;;;;;11.43;8.18;;;10.40;73.20;;;;;;3595028;39;20116;-60
2021/04/30 02:03:09;;;;;;;10.02;8.07;;;10.40;73.40;;;;;;3584150;39;20517;-59
2021/04/30 02:05:36;;;;;;;9.23;7.10;;;10.40;72.70;;;;;;3572956;39;20028;-60
2021/04/30 02:08:21;;;;;;;11.10;8.88;;;10.40;73.50;;;;;;3588653;39;20035;-60
2021/04/30 02:10:51;;;;;;;10.05;7.40;;;10.50;72.60;;;;;;3594149;39;20031;-60
2021/04/30 02:13:19;;;;;;;10.95;8.30;;;10.40;73.60;;;;;;3584499;39;20048;-60
2021/04/30 02:15:46;;;;;;;8.75;7.28;;;10.50;73.40;;;;;;3591391;39;20043;-60
2021/04/30 02:18:12;;;;;;;9.18;7.63;;;10.50;73.40;;;;;;3589498;39;20519;-60
2021/04/30 02:20:38;;;;;;;12.73;7.90;;;10.50;73.40;;;;;;3588622;39;20545;-60
2021/04/30 02:23:05;;;;;;;9.93;7.90;;;10.40;73.60;;;;;;3590700;39;20070;-60
2021/04/30 02:25:32;;;;;;;12.80;8.57;;;10.40;74.00;;;;;;3593285;39;20042;-60
2021/04/30 02:28:00;;;;;;;10.48;8.05;;;10.40;74.00;;;;;;3595254;39;20020;-59
2021/04/30 02:30:27;;;;;;;11.07;8.68;;;10.40;74.10;;;;;;3588099;39;20099;-60
2021/04/30 02:32:54;;;;;;;13.07;9.27;;;10.40;73.50;;;;;;3580487;39;20039;-60
2021/04/30 02:35:23;;;;;;;13.55;8.80;;;10.30;73.60;;;;;;3592831;39;20024;-60
2021/04/30 02:37:50;;;;;;;11.10;8.60;;;10.30;74.50;;;;;;3590594;39;20046;-60
2021/04/30 02:40:18;;;;;;;11.48;7.95;;;10.30;74.50;;;;;;3596623;39;20035;-60
2021/04/30 02:42:45;;;;;;;10.00;8.52;;;10.30;75.00;;;;;;3591158;39;20023;-60
2021/04/30 02:45:14;;;;;;;12.70;8.90;;;10.30;75.20;;;;;;3595325;39;20032;-60
2021/04/30 02:47:41;;;;;;;12.13;8.88;;;10.30;75.20;;;;;;3595373;39;20031;-60
2021/04/30 02:50:08;;;;;;;14.32;10.43;;;10.30;75.40;;;;;;3585560;39;20075;-61
2021/04/30 02:52:33;;;;;;;11.95;10.07;;;10.30;74.50;;;;;;3596620;39;20397;-60
2021/04/30 02:54:59;;;;;;;12.65;9.57;;;10.40;75.00;;;;;;3583967;39;20035;-60
2021/04/30 02:57:27;;;;;;;14.02;9.45;;;10.40;74.80;;;;;;3592716;39;20040;-60
2021/04/30 02:59:53;;;;;;;13.10;9.27;;;10.40;75.10;;;;;;3595886;39;20030;-60
2021/04/30 03:02:19;;;;;;;10.15;8.48;;;10.40;75.60;;;;;;3596406;39;20721;-60
2021/04/30 03:04:45;;;;;;;12.85;9.52;;;10.40;75.00;;;;;;3595308;39;20058;-61
2021/04/30 03:07:10;;;;;;;13.82;9.55;;;10.50;75.40;;;;;;3582107;39;20039;-60
2021/04/30 03:09:36;;;;;;;12.80;9.63;;;10.50;75.50;;;;;;3590983;39;20055;-60
2021/04/30 03:12:02;;;;;;;15.35;10.88;;;10.40;75.60;;;;;;3591872;39;20023;-60
2021/04/30 03:14:28;;;;;;;14.63;10.45;;;10.40;75.60;;;;;;3599886;39;20026;-60
2021/04/30 03:16:54;;;;;;;11.48;9.13;;;10.40;76.30;;;;;;3596911;39;20040;-61
2021/04/30 03:19:20;;;;;;;13.95;10.30;;;10.40;76.30;;;;;;3583736;39;20032;-60
2021/04/30 03:21:46;;;;;;;15.82;9.93;;;10.40;76.20;;;;;;3597353;39;20036;-61
2021/04/30 03:24:11;;;;;;;17.00;11.15;;;10.50;76.80;;;;;;3600363;39;20043;-60
2021/04/30 03:26:37;;;;;;;13.70;10.05;;;10.50;76.60;;;;;;3598841;39;20020;-61
2021/04/30 03:29:04;;;;;;;13.75;9.52;;;10.40;76.70;;;;;;3599274;39;20028;-60
2021/04/30 03:31:30;;;;;;;10.70;9.20;;;10.50;77.10;;;;;;3599430;39;20039;-60
2021/04/30 03:33:56;;;;;;;12.10;9.02;;;10.50;77.50;;;;;;3601641;39;20027;-60
2021/04/30 03:36:22;;;;;;;13.88;10.10;;;10.50;77.10;;;;;;3599780;39;20036;-60
2021/04/30 03:38:48;;;;;;;12.98;9.00;;;10.40;77.00;;;;;;3597910;39;20670;-60
2021/04/30 03:41:15;;;;;;;13.27;9.70;;;10.40;77.60;;;;;;3586824;39;20080;-61
2021/04/30 03:43:42;;;;;;;14.88;9.55;;;10.40;78.10;;;;;;3581251;39;20042;-60
2021/04/30 03:46:08;;;;;;;13.75;9.85;;;10.30;78.70;;;;;;3594282;39;20894;-60
2021/04/30 03:48:33;;;;;;;12.57;9.98;;;10.30;79.00;;;;;;3594938;39;20436;-60
2021/04/30 03:50:59;;;;;;;12.27;9.18;;;10.30;78.90;;;;;;3594689;39;20032;-59
2021/04/30 03:53:25;;;;;;;12.52;9.38;;;10.30;79.00;;;;;;3593989;39;20038;-59
2021/04/30 03:55:52;;;;;;;12.55;9.30;;;10.30;79.40;;;;;;3587299;39;20027;-60
2021/04/30 04:00:52;;;;;;;12.40;9.45;;;10.20;79.60;;;;;;3630058;22;20084;-59
2021/04/30 04:03:18;;;;;;;12.73;9.63;;;10.20;79.80;;;;;;3554157;40;20037;-59
2021/04/30 04:05:43;;;;;;;13.50;10.20;;;10.20;79.30;;;;;;3554623;40;20414;-59
2021/04/30 04:08:09;;;;;;;14.32;9.40;;;10.20;79.60;;;;;;3552421;40;20034;-59
2021/04/30 04:10:36;;;;;;;10.80;8.88;;;10.20;79.60;;;;;;3554645;40;20050;-59
2021/04/30 04:13:02;;;;;;;12.57;9.70;;;10.20;79.20;;;;;;3554181;40;20034;-60
2021/04/30 04:15:28;;;;;;;12.68;9.13;;;10.20;79.40;;;;;;3554887;40;20045;-61
2021/04/30 04:17:53;;;;;;;12.23;9.45;;;10.30;79.40;;;;;;3556440;40;20785;-59
2021/04/30 04:20:19;;;;;;;13.27;10.10;;;10.30;79.50;;;;;;3556597;40;20042;-60
2021/04/30 04:22:45;;;;;;;13.13;10.05;;;10.40;79.70;;;;;;3554567;40;20105;-60
2021/04/30 04:25:11;;;;;;;11.45;8.50;;;10.40;79.40;;;;;;3554549;40;20026;-60
2021/04/30 04:27:36;;;;;;;11.35;9.25;;;10.40;79.40;;;;;;3556273;40;20049;-60
2021/04/30 04:30:03;;;;;;;15.10;9.48;;;10.40;79.40;;;;;;3545218;40;20560;-61
2021/04/30 04:32:29;;;;;;;16.20;9.45;;;10.30;79.00;;;;;;3554746;40;20038;-59
2021/04/30 04:34:55;;;;;;;15.23;10.95;;;10.30;78.90;;;;;;3554035;40;20037;-59
2021/04/30 04:37:20;;;;;;;14.73;10.57;;;10.30;79.00;;;;;;3544920;40;20192;-59
2021/04/30 04:39:46;;;;;;;13.13;9.65;;;10.40;79.40;;;;;;3544494;40;20764;-59
2021/04/30 04:42:12;;;;;;;12.32;9.50;;;10.40;78.40;;;;;;3554572;40;20034;-59
2021/04/30 04:44:37;;;;;;;14.57;9.82;;;10.30;78.70;;;;;;3554880;40;20435;-59
2021/04/30 04:47:03;;;;;;;12.18;9.15;;;10.30;78.40;;;;;;3550998;40;20045;-59
2021/04/30 04:49:29;;;;;;;14.27;9.75;;;10.40;78.50;;;;;;3553568;40;20068;-61
2021/04/30 04:51:55;;;;;;;11.07;9.23;;;10.40;78.50;;;;;;3546972;40;20754;-59
2021/04/30 04:54:21;;;;;;;13.68;9.93;;;10.40;78.60;;;;;;3553099;40;20026;-59
2021/04/30 04:56:48;;;;;;;11.75;9.52;;;10.50;78.50;;;;;;3554715;40;20530;-59
2021/04/30 04:59:13;;;;;;;14.90;9.38;;;10.50;78.50;;;;;;3550914;40;20042;-59
2021/04/30 05:01:39;;;;;;;11.65;9.23;;;10.60;78.20;;;;;;3555232;40;20813;-60
2021/04/30 05:04:05;;;;;;;15.13;10.20;;;10.60;78.10;;;;;;3554258;40;20198;-60
2021/04/30 05:06:31;;;;;;;14.90;10.05;;;10.60;78.20;;;;;;3542845;40;20032;-59
2021/04/30 05:08:57;;;;;;;12.23;9.02;;;10.60;78.40;;;;;;3554294;40;20047;-59
2021/04/30 05:11:22;;;;;;;12.20;10.05;;;10.60;77.90;;;;;;3554171;40;20030;-59
2021/04/30 05:13:48;;;;;;;14.02;10.40;;;10.60;77.90;;;;;;3554866;40;20029;-59
2021/04/30 05:16:14;;;;;;;13.00;10.10;;;10.60;78.10;;;;;;3551984;40;20032;-60
2021/04/30 05:18:42;;;;;;;13.02;10.13;;;10.60;78.00;;;;;;3553274;40;20949;-59
2021/04/30 05:21:09;;;;;;;11.63;9.57;;;10.60;77.70;;;;;;3552324;40;20056;-59
2021/04/30 05:23:37;;;;;;;13.52;10.32;;;10.60;78.30;;;;;;3553645;40;20383;-60
2021/04/30 05:26:03;;;;;;;14.45;11.27;;;10.60;77.80;;;;;;3543424;40;20034;-60
2021/04/30 05:28:33;;;;;;;11.95;9.50;;;10.60;78.10;;;;;;3554098;40;20081;-60
2021/04/30 05:30:59;;;;;;;12.98;9.90;;;10.60;78.10;;;;;;3551183;40;20049;-60
2021/04/30 05:33:24;;;;;;;12.95;10.48;;;10.60;78.00;;;;;;3555611;40;20054;-60
2021/04/30 05:35:51;;;;;;;12.00;10.00;;;10.70;77.60;;;;;;3554694;40;20096;-60
2021/04/30 05:38:17;;;;;;;13.15;9.88;;;10.70;77.70;;;;;;3545568;40;20030;-60
2021/04/30 05:40:43;;;;;;;13.32;10.73;;;10.70;77.40;;;;;;3543325;40;20085;-65
2021/04/30 05:43:09;;;;;;;12.30;10.13;;;10.80;77.60;;;;;;3554649;40;20033;-60
2021/04/30 05:45:34;;;;;;;14.80;10.13;;;10.80;77.30;;;;;;3552267;40;20776;-60
2021/04/30 05:48:00;;;;;;;14.88;10.18;;;10.80;77.30;;;;;;3545257;40;20041;-60
2021/04/30 05:50:26;;;;;;;15.68;10.48;;;10.80;77.00;;;;;;3553485;40;20115;-60
2021/04/30 05:52:51;;;;;;;14.18;10.23;;;10.90;77.00;;;;;;3552090;40;20077;-60
2021/04/30 05:55:17;;;;;;;13.13;10.43;;;10.90;77.10;;;;;;3554496;40;20059;-60
2021/04/30 05:57:43;;;;;;;13.90;11.00;;;10.80;77.20;;;;;;3551275;40;20120;-61
2021/04/30 06:00:11;;;;;;;18.08;12.60;;;10.80;77.00;;;;;;3553550;40;20036;-61
2021/04/30 06:02:40;;;;;;;14.93;10.25;;;10.80;77.10;;;;;;3543785;40;20115;-61
2021/04/30 06:05:07;;;;;;;12.45;9.93;;;10.80;77.00;;;;;;3553612;40;20037;-61
2021/04/30 06:07:33;;;;;;;13.85;9.95;;;10.90;77.40;;;;;;3555534;40;20059;-62
2021/04/30 06:09:58;;;;;;;14.25;11.35;;;11.00;77.10;;;;;;3552664;40;20758;-61
2021/04/30 06:12:24;;;;;;;13.52;10.30;;;11.00;77.40;;;;;;3552296;40;20037;-61
2021/04/30 06:14:50;;;;;;;12.13;10.38;;;11.00;77.10;;;;;;3550394;40;20034;-60
2021/04/30 06:17:18;;;;;;;12.75;10.43;;;11.00;76.70;;;;;;3553747;40;20576;-62
2021/04/30 06:19:45;;;;;;;12.70;9.40;;;11.00;76.90;;;;;;3552480;40;20057;-61
2021/04/30 06:22:11;;;;;;;15.07;11.23;;;10.90;76.60;;;;;;3552959;40;20042;-61
2021/04/30 06:24:37;;;;;;;16.08;11.25;;;11.00;77.00;;;;;;3554081;40;20145;-60
2021/04/30 06:27:02;;;;;;;13.05;10.38;;;11.00;76.40;;;;;;3552204;40;20026;-61
2021/04/30 06:29:28;;;;;;;14.80;11.20;;;10.90;76.50;;;;;;3554653;40;20030;-60
2021/04/30 06:31:55;;;;;;;19.33;13.73;;;10.90;76.70;;;;;;3554443;40;20022;-60
2021/04/30 06:34:21;;;;;;;14.48;10.43;;;10.90;77.10;;;;;;3555438;40;20686;-60
2021/04/30 06:36:48;;;;;;;14.50;10.77;;;10.90;77.60;;;;;;3554452;40;20038;-60
2021/04/30 06:39:14;;;;;;;15.00;11.90;;;10.90;77.20;;;;;;3556256;40;20037;-60
2021/04/30 06:41:39;;;;;;;14.55;10.75;;;10.90;77.10;;;;;;3552777;40;20053;-60
2021/04/30 06:44:05;;;;;;;16.02;10.50;;;11.00;76.70;;;;;;3547988;40;20041;-60
2021/04/30 06:46:31;;;;;;;13.88;10.38;;;10.90;76.90;;;;;;3554216;40;20514;-66
2021/04/30 06:48:57;;;;;;;11.98;9.25;;;10.90;77.10;;;;;;3556058;40;20025;-64
2021/04/30 06:51:23;;;;;;;15.20;10.88;;;11.00;77.30;;;;;;3544281;40;20407;-65
2021/04/30 06:53:48;;;;;;;12.82;9.85;;;11.00;77.10;;;;;;3553084;40;20029;-64
2021/04/30 06:56:14;;;;;;;12.48;9.75;;;11.00;77.20;;;;;;3555748;40;20131;-64
2021/04/30 06:58:40;;;;;;;12.57;10.27;;;11.10;77.40;;;;;;3553426;40;20437;-65
2021/04/30 07:01:07;;;;;;;14.15;10.32;;;11.10;77.00;;;;;;3554516;40;20041;-65
2021/04/30 07:03:32;;;;;;;13.32;9.27;;;11.10;76.60;;;;;;3554371;40;20037;-66
2021/04/30 07:05:58;;;;;;;9.23;6.70;;;11.00;75.50;;;;;;3558028;40;20037;-64
2021/04/30 07:08:24;;;;;;;7.45;5.72;;;10.90;75.00;;;;;;3554846;40;20069;-66
2021/04/30 07:10:50;;;;;;;6.00;4.53;;;10.90;73.90;;;;;;3535886;40;20076;-65
2021/04/30 07:13:16;;;;;;;4.15;3.75;;;10.80;73.70;;;;;;3553576;40;20029;-66
2021/04/30 07:15:42;;;;;;;4.00;3.60;;;10.80;73.30;;;;;;3556871;40;20041;-65
2021/04/30 07:18:07;;;;;;;4.15;3.42;;;10.80;72.70;;;;;;3555596;40;20131;-66
2021/04/30 07:20:34;;;;;;;3.70;3.20;;;10.80;73.50;;;;;;3555779;40;20062;-66
2021/04/30 07:23:01;;;;;;;4.03;3.50;;;10.80;73.00;;;;;;3555014;40;20045;-68
2021/04/30 07:25:28;;;;;;;4.82;3.50;;;10.80;73.20;;;;;;3557584;40;20042;-65
2021/04/30 07:27:54;;;;;;;5.78;3.60;;;10.80;73.60;;;;;;3554684;40;20405;-64
2021/04/30 07:30:20;;;;;;;4.57;4.07;;;10.70;73.60;;;;;;3555126;40;20053;-65
2021/04/30 07:32:45;;;;;;;8.35;7.25;;;10.70;73.00;;;;;;3544799;40;20033;-64
2021/04/30 07:35:11;;;;;;;13.68;12.40;;;10.70;73.50;;;;;;3556047;40;20131;-66
2021/04/30 07:37:37;;;;;;;6.95;5.40;;;10.80;73.40;;;;;;3556844;40;20073;-66
2021/04/30 07:40:07;;;;;;;11.00;9.68;;;10.80;72.80;;;;;;3555433;40;20037;-66
2021/04/30 07:42:33;;;;;;;8.43;7.57;;;11.00;73.30;;;;;;3554057;40;20909;-66
2021/04/30 07:44:59;;;;;;;11.23;9.90;;;11.10;72.70;;;;;;3554308;40;20037;-65
2021/04/30 07:47:25;;;;;;;31.52;20.75;;;11.30;72.80;;;;;;3555440;40;20048;-66
2021/04/30 07:49:51;;;;;;;40.03;20.77;;;11.50;72.00;;;;;;3555414;40;20426;-65
2021/04/30 07:52:16;;;;;;;77.68;37.53;;;11.70;71.30;;;;;;3555300;40;20044;-66
2021/04/30 07:54:42;;;;;;;60.78;32.30;;;11.90;69.90;;;;;;3553505;40;20074;-66
2021/04/30 07:57:09;;;;;;;16.88;9.82;;;12.00;68.90;;;;;;3553843;40;20117;-66
2021/04/30 07:59:34;;;;;;;8.30;5.10;;;12.10;68.40;;;;;;3539003;40;20037;-66
2021/04/30 08:02:00;;;;;;;7.38;4.97;;;12.30;67.60;;;;;;3553485;40;20036;-66
2021/04/30 08:04:26;;;;;;;4.10;3.70;;;12.40;66.50;;;;;;3556185;40;20430;-67
2021/04/30 08:06:52;;;;;;;4.13;3.40;;;12.60;65.40;;;;;;3555184;40;20045;-68
2021/04/30 08:09:18;;;;;;;3.80;3.08;;;12.80;64.70;;;;;;3544537;40;20617;-66
2021/04/30 08:11:43;;;;;;;8.52;5.50;;;12.80;64.40;;;;;;3557117;40;20084;-66
2021/04/30 08:14:09;;;;;;;4.68;2.88;;;12.90;63.00;;;;;;3554161;40;20854;-67
2021/04/30 08:16:36;;;;;;;5.03;3.13;;;12.90;62.30;;;;;;3536726;40;20112;-66
2021/04/30 08:19:02;;;;;;;5.15;2.92;;;12.90;62.10;;;;;;3556113;40;20393;-66
2021/04/30 08:21:29;;;;;;;3.67;2.90;;;12.90;62.20;;;;;;3555144;40;20035;-65
2021/04/30 08:23:55;;;;;;;3.50;2.42;;;12.80;62.10;;;;;;3555343;40;20363;-64
2021/04/30 08:26:21;;;;;;;2.50;2.30;;;12.90;61.90;;;;;;3552754;40;20116;-66
2021/04/30 08:28:48;;;;;;;4.60;3.42;;;13.00;60.60;;;;;;3554586;40;20389;-66
2021/04/30 08:31:14;;;;;;;6.00;3.90;;;13.00;60.00;;;;;;3553161;40;20038;-65
2021/04/30 08:33:39;;;;;;;6.53;4.20;;;13.10;60.40;;;;;;3554144;40;20032;-65
2021/04/30 08:36:05;;;;;;;3.13;2.47;;;13.10;60.30;;;;;;3553311;40;20713;-66
2021/04/30 08:38:31;;;;;;;4.43;2.15;;;13.00;59.80;;;;;;3552635;40;20079;-65
2021/04/30 08:41:00;;;;;;;3.38;2.50;;;13.00;58.90;;;;;;3555465;40;20778;-66
2021/04/30 08:43:26;;;;;;;2.92;2.50;;;12.90;59.10;;;;;;3555456;40;20068;-66
2021/04/30 08:45:55;;;;;;;4.22;2.45;;;12.90;61.20;;;;;;3554548;40;20774;-66
2021/04/30 08:48:24;;;;;;;4.90;3.15;;;12.90;61.60;;;;;;3546680;40;20022;-65
2021/04/30 08:50:51;;;;;;;6.97;3.00;;;12.90;62.00;;;;;;3555550;40;20034;-66
2021/04/30 08:53:17;;;;;;;4.30;3.47;;;12.90;61.70;;;;;;3550570;40;20139;-66
2021/04/30 08:55:43;;;;;;;6.18;4.38;;;12.80;61.60;;;;;;3557200;40;20610;-66
2021/04/30 08:58:10;;;;;;;4.20;3.50;;;12.70;61.80;;;;;;3555495;40;20026;-66
2021/04/30 09:00:36;;;;;;;4.90;3.67;;;12.70;62.80;;;;;;3552581;40;20135;-64
2021/04/30 09:03:04;;;;;;;5.20;3.70;;;12.60;63.70;;;;;;3553848;40;20078;-64
2021/04/30 09:05:31;;;;;;;4.85;3.83;;;12.50;63.60;;;;;;3553620;40;20045;-65
2021/04/30 09:08:00;;;;;;;5.28;3.42;;;12.60;63.60;;;;;;3555788;40;20044;-66
2021/04/30 09:10:28;;;;;;;4.47;3.67;;;12.50;64.00;;;;;;3554934;40;20077;-67
2021/04/30 09:13:12;;;;;;;6.78;3.50;;;12.50;63.00;;;;;;3552282;40;20180;-66
2021/04/30 09:15:40;;;;;;;4.82;3.35;;;12.50;64.90;;;;;;3546819;40;20037;-66
2021/04/30 09:18:28;;;;;;;3.95;2.75;;;12.50;64.40;;;;;;3555813;40;20089;-66
2021/04/30 09:20:55;;;;;;;2.97;2.35;;;12.40;63.50;;;;;;3551924;40;20042;-66
2021/04/30 09:23:45;;;;;;;5.90;2.58;;;12.40;62.00;;;;;;3556414;40;20173;-67
2021/04/30 09:26:25;;;;;;;4.32;3.10;;;12.30;64.00;;;;;;3553776;40;20138;-66
2021/04/30 09:29:09;;;;;;;3.10;2.22;;;12.30;64.20;;;;;;3554444;40;20509;-67
2021/04/30 09:31:42;;;;;;;3.78;3.20;;;12.30;63.90;;;;;;3553413;40;20033;-68
2021/04/30 09:34:14;;;;;;;5.45;3.40;;;12.20;64.40;;;;;;3556115;40;20415;-66
2021/04/30 09:37:12;;;;;;;7.13;3.65;;;12.10;66.00;;;;;;3552967;40;20033;-65
2021/04/30 09:39:56;;;;;;;;;;;12.20;66.50;;;;;;3555581;40;20041;-66
2021/04/30 09:42:25;;;;;;;5.32;3.58;;;12.20;66.30;;;;;;3555093;40;19943;-66
2021/04/30 09:44:54;;;;;;;5.40;2.97;;;12.10;67.50;;;;;;3553642;40;20040;-66
2021/04/30 09:47:21;;;;;;;4.05;3.67;;;12.10;66.70;;;;;;3551720;40;20044;-65
2021/04/30 09:49:49;;;;;;;5.65;3.78;;;12.20;66.10;;;;;;3555795;40;20788;-65
2021/04/30 09:52:16;;;;;;;7.25;4.30;;;12.20;67.10;;;;;;3554636;40;20041;-67
2021/04/30 09:54:43;;;;;;;4.95;3.90;;;12.30;66.80;;;;;;3552353;40;20038;-65
2021/04/30 09:57:23;;;;;;;4.93;3.75;;;12.50;66.50;;;;;;3552510;40;20026;-66
2021/04/30 10:00:11;;;;;;;5.18;3.70;;;12.70;65.90;;;;;;3554217;40;20723;-65
2021/04/30 10:02:44;;;;;;;4.32;2.80;;;13.00;63.50;;;;;;3555166;40;20061;-65
2021/04/30 10:05:13;;;;;;;5.70;3.72;;;13.10;62.30;;;;;;3551043;40;20677;-67
2021/04/30 10:07:46;;;;;;;3.05;2.75;;;13.30;62.40;;;;;;3553722;40;20034;-66
2021/04/30 10:10:17;;;;;;;4.68;2.67;;;13.50;61.00;;;;;;3554099;40;21060;-66
2021/04/30 10:12:45;;;;;;;4.88;3.17;;;13.90;59.60;;;;;;3554858;40;20144;-65
2021/04/30 10:15:13;;;;;;;5.85;3.45;;;14.20;58.30;;;;;;3543585;40;20058;-67
2021/04/30 10:17:40;;;;;;;5.95;3.88;;;14.40;57.90;;;;;;3543691;40;20088;-66
2021/04/30 10:20:08;;;;;;;4.45;3.28;;;14.50;56.60;;;;;;3553035;40;20191;-66
2021/04/30 10:22:36;;;;;;;5.18;2.90;;;14.50;54.90;;;;;;3553168;40;20046;-66
2021/04/30 10:25:04;;;;;;;5.30;2.75;;;14.50;57.30;;;;;;3554042;40;20112;-66
2021/04/30 10:27:36;;;;;;;3.92;3.00;;;14.60;56.50;;;;;;3552394;40;20143;-66
2021/04/30 10:30:21;;;;;;;4.20;3.53;;;14.80;55.80;;;;;;3552686;40;20062;-66
2021/04/30 10:33:12;;;;;;;5.03;3.13;;;15.10;56.30;;;;;;3553064;40;20885;-67
2021/04/30 10:35:45;;;;;;;5.47;3.47;;;15.40;55.40;;;;;;3552476;40;20040;-67
2021/04/30 10:38:16;;;;;;;5.65;3.42;;;15.40;55.40;;;;;;3554773;40;20038;-67
2021/04/30 10:41:00;;;;;;;4.07;3.60;;;15.40;55.70;;;;;;3553538;40;20041;-66
2021/04/30 10:43:26;;;;;;;6.43;4.05;;;15.20;57.10;;;;;;3554457;40;20052;-66
2021/04/30 10:46:19;;;;;;;5.32;3.90;;;15.10;56.90;;;;;;3544750;40;20029;-66
2021/04/30 10:49:16;;;;;;;6.07;4.38;;;15.00;56.70;;;;;;3545174;40;20841;-66
2021/04/30 10:51:43;;;;;;;6.20;4.40;;;14.90;56.40;;;;;;3539792;40;20725;-66
2021/04/30 10:54:25;;;;;;;5.82;4.43;;;14.70;57.70;;;;;;3554485;40;20034;-66
2021/04/30 10:57:03;;;;;;;4.72;3.75;;;14.60;58.80;;;;;;3553949;40;20034;-66
2021/04/30 10:59:42;;;;;;;4.53;3.53;;;14.40;57.10;;;;;;3552015;40;20061;-66
2021/04/30 11:02:27;;;;;;;4.95;4.10;;;14.30;59.70;;;;;;3550872;40;20038;-65
2021/04/30 11:05:05;;;;;;;6.13;4.25;;;14.40;59.10;;;;;;3557031;40;20403;-65
2021/04/30 11:07:34;;;;;;;5.57;4.03;;;14.60;58.10;;;;;;3550794;40;20033;-67
2021/04/30 11:09:59;;;;;;;5.35;3.95;;;14.60;57.20;;;;;;3554941;40;20985;-66
2021/04/30 11:12:27;;;;;;;3.90;3.40;;;14.70;58.30;;;;;;3546133;40;20018;-66
2021/04/30 11:15:06;;;;;;;5.57;3.70;;;14.90;56.70;;;;;;3554958;40;20206;-66
2021/04/30 11:17:53;;;;;;;5.30;3.45;;;15.10;55.60;;;;;;3554907;40;20037;-65
2021/04/30 11:20:21;;;;;;;4.78;3.38;;;15.50;54.60;;;;;;3550799;40;20034;-65
2021/04/30 11:23:22;;;;;;;4.53;3.70;;;15.70;54.20;;;;;;3543691;40;20083;-67
2021/04/30 11:26:00;;;;;;;5.40;3.80;;;15.80;54.90;;;;;;3553849;40;20037;-66
2021/04/30 11:28:33;;;;;;;3.95;3.55;;;15.70;54.10;;;;;;3554841;40;20033;-65
2021/04/30 11:30:58;;;;;;;4.90;3.45;;;15.60;51.90;;;;;;3551043;40;20078;-66
2021/04/30 11:33:24;;;;;;;6.05;3.55;;;15.40;53.10;;;;;;3553375;40;20030;-66
2021/04/30 11:35:51;;;;;;;3.83;3.53;;;15.20;55.30;;;;;;3553017;40;20083;-66
2021/04/30 11:38:17;;;;;;;6.80;3.65;;;15.30;55.10;;;;;;3556280;40;20037;-66
2021/04/30 11:40:43;;;;;;;5.22;3.40;;;15.30;56.60;;;;;;3556029;40;20029;-66
2021/04/30 11:43:09;;;;;;;3.90;3.20;;;15.30;55.00;;;;;;3554782;40;20081;-66
2021/04/30 11:45:36;;;;;;;3.67;3.05;;;15.20;54.30;;;;;;3557851;40;20672;-66
2021/04/30 11:48:02;;;;;;;3.05;2.70;;;15.10;54.00;;;;;;3556244;40;20435;-65
2021/04/30 11:50:28;;;;;;;4.05;3.45;;;15.10;54.30;;;;;;3553161;40;20034;-66
2021/04/30 11:52:54;;;;;;;3.53;2.97;;;15.10;54.80;;;;;;3554897;40;20031;-65
2021/04/30 11:55:21;;;;;;;5.47;3.60;;;15.00;54.00;;;;;;3555126;40;20038;-67
2021/04/30 11:57:53;;;;;;;4.35;3.10;;;15.00;54.60;;;;;;3556782;40;20062;-65
2021/04/30 12:00:22;;;;;;;5.25;3.67;;;15.00;55.20;;;;;;3554991;40;20057;-66
2021/04/30 12:03:06;;;;;;;4.22;3.60;;;14.90;55.20;;;;;;3557372;40;20409;-66
2021/04/30 12:05:32;;;;;;;4.18;3.10;;;14.80;54.60;;;;;;3555350;40;20045;-66
2021/04/30 12:07:59;;;;;;;4.28;3.38;;;14.70;55.00;;;;;;3555031;40;20036;-67
2021/04/30 12:10:29;;;;;;;10.27;5.57;;;14.60;55.90;;;;;;3553776;40;20424;-66
2021/04/30 12:12:55;;;;;;;4.97;3.80;;;14.50;55.40;;;;;;3555929;40;20310;-66
2021/04/30 12:15:32;;;;;;;4.57;3.97;;;14.50;56.00;;;;;;3547464;40;20153;-61
2021/04/30 12:17:58;;;;;;;4.75;3.92;;;14.40;53.90;;;;;;3537982;40;20034;-61
2021/04/30 12:20:32;;;;;;;5.35;4.20;;;14.30;56.30;;;;;;3545121;40;20448;-61
2021/04/30 12:23:01;;;;;;;4.40;3.92;;;14.30;55.00;;;;;;3546118;40;20045;-60
2021/04/30 12:25:38;;;;;;;5.32;3.63;;;14.20;56.70;;;;;;3553295;40;20120;-61
2021/04/30 12:28:30;;;;;;;4.10;3.47;;;14.10;57.30;;;;;;3553834;40;20037;-60
2021/04/30 12:31:08;;;;;;;4.80;3.75;;;14.10;57.10;;;;;;3552547;40;20065;-60
2021/04/30 12:33:48;;;;;;;4.65;3.63;;;14.10;56.20;;;;;;3556354;40;20030;-60
2021/04/30 12:36:17;;;;;;;6.55;3.75;;;14.20;56.90;;;;;;3556756;40;20211;-61
2021/04/30 12:38:47;;;;;;;4.47;3.80;;;14.10;55.40;;;;;;3545114;40;20065;-62
2021/04/30 12:41:24;;;;;;;4.53;3.88;;;14.10;56.60;;;;;;3552339;40;20133;-61
2021/04/30 12:43:54;;;;;;;4.50;3.97;;;14.20;56.00;;;;;;3554689;40;20618;-60
2021/04/30 12:46:29;;;;;;;5.10;4.60;;;14.30;57.20;;;;;;3544769;40;20683;-61